sensor_id;sensor_type;location;lat;lon;timestamp;temperature;humidity
23149;DHT22;11743;51.228;22.498;2023-09-12T00:00:00;15.40;99.90
23149;DHT22;11743;51.228;22.498;2023-09-12T00:00:21;15.40;99.90
23149;DHT22;11743;51.228;22.498;2023-09-12T00:00:45;15.40;99.90
23149;DHT22;11743;51.228;22.498;2023-09-12T00:01:07;15.40;99.90
23149;DHT22;11743;51.228;22.498;2023-09-12T00:01:29;15.40;99.90
23149;DHT22;11743;51.228;22.498;2023-09-12T00:01:54;15.40;99.90
23149;DHT22;11743;51.228;22.498;2023-09-12T00:02:16;15.40;99.90
23149;DHT22;11743;51.228;22.498;2023-09-12T00:02:38;15.40;99.90
23149;DHT22;11743;51.228;22.498;2023-09-12T00:03:00;15.40;99.90
23149;DHT22;11743;51.228;22.498;2023-09-12T00:03:23;15.40;99.90
23149;DHT22;11743;51.228;22.498;2023-09-12T00:03:45;15.40;99.90
23149;DHT22;11743;51.228;22.498;2023-09-12T00:04:07;15.40;99.90
23149;DHT22;11743;51.228;22.498;2023-09-12T00:04:29;15.40;99.90
23149;DHT22;11743;51.228;22.498;2023-09-12T00:04:51;15.40;99.90
23149;DHT22;11743;51.228;22.498;2023-09-12T00:05:13;15.40;99.90
23149;DHT22;11743;51.228;22.498;2023-09-12T00:05:34;15.40;99.90
23149;DHT22;11743;51.228;22.498;2023-09-12T00:05:57;15.40;99.90
23149;DHT22;11743;51.228;22.498;2023-09-12T00:06:19;15.40;99.90
23149;DHT22;11743;51.228;22.498;2023-09-12T00:06:41;15.40;99.90
23149;DHT22;11743;51.228;22.498;2023-09-12T00:07:03;15.40;99.90
23149;DHT22;11743;51.228;22.498;2023-09-12T00:07:25;15.40;99.90
23149;DHT22;11743;51.228;22.498;2023-09-12T00:07:47;15.40;99.90
23149;DHT22;11743;51.228;22.498;2023-09-12T00:08:09;15.40;99.90
23149;DHT22;11743;51.228;22.498;2023-09-12T00:08:31;15.40;99.90
23149;DHT22;11743;51.228;22.498;2023-09-12T00:08:53;15.40;99.90
23149;DHT22;11743;51.228;22.498;2023-09-12T00:09:14;15.40;99.90
23149;DHT22;11743;51.228;22.498;2023-09-12T00:09:36;15.40;99.90
23149;DHT22;11743;51.228;22.498;2023-09-12T00:09:58;15.40;99.90
23149;DHT22;11743;51.228;22.498;2023-09-12T00:10:20;15.30;99.90
23149;DHT22;11743;51.228;22.498;2023-09-12T00:10:42;15.40;99.90
23149;DHT22;11743;51.228;22.498;2023-09-12T00:11:06;15.40;99.90
23149;DHT22;11743;51.228;22.498;2023-09-12T00:11:31;15.30;99.90
23149;DHT22;11743;51.228;22.498;2023-09-12T00:11:53;15.40;99.90
23149;DHT22;11743;51.228;22.498;2023-09-12T00:12:16;15.40;99.90
23149;DHT22;11743;51.228;22.498;2023-09-12T00:12:38;15.40;99.90
23149;DHT22;11743;51.228;22.498;2023-09-12T00:13:00;15.30;99.90
23149;DHT22;11743;51.228;22.498;2023-09-12T00:13:24;15.40;99.90
23149;DHT22;11743;51.228;22.498;2023-09-12T00:13:45;15.40;99.90
23149;DHT22;11743;51.228;22.498;2023-09-12T00:14:09;15.40;99.90
23149;DHT22;11743;51.228;22.498;2023-09-12T00:14:31;15.40;99.90
23149;DHT22;11743;51.228;22.498;2023-09-12T00:14:53;15.30;99.90
23149;DHT22;11743;51.228;22.498;2023-09-12T00:15:14;15.40;99.90
23149;DHT22;11743;51.228;22.498;2023-09-12T00:15:36;15.40;99.90
23149;DHT22;11743;51.228;22.498;2023-09-12T00:15:58;15.40;99.90
23149;DHT22;11743;51.228;22.498;2023-09-12T00:16:20;15.40;99.90
23149;DHT22;11743;51.228;22.498;2023-09-12T00:16:42;15.40;99.90
23149;DHT22;11743;51.228;22.498;2023-09-12T00:17:04;15.30;99.90
23149;DHT22;11743;51.228;22.498;2023-09-12T00:17:26;15.40;99.90
23149;DHT22;11743;51.228;22.498;2023-09-12T00:17:48;15.40;99.90
23149;DHT22;11743;51.228;22.498;2023-09-12T00:18:11;15.30;99.90
23149;DHT22;11743;51.228;22.498;2023-09-12T00:18:33;15.30;99.90
23149;DHT22;11743;51.228;22.498;2023-09-12T00:18:57;15.30;99.90
23149;DHT22;11743;51.228;22.498;2023-09-12T00:19:19;15.30;99.90
23149;DHT22;11743;51.228;22.498;2023-09-12T00:19:43;15.30;99.90
23149;DHT22;11743;51.228;22.498;2023-09-12T00:20:05;15.30;99.90
23149;DHT22;11743;51.228;22.498;2023-09-12T00:20:29;15.30;99.90
23149;DHT22;11743;51.228;22.498;2023-09-12T00:20:50;15.30;99.90
23149;DHT22;11743;51.228;22.498;2023-09-12T00:21:13;15.30;99.90
23149;DHT22;11743;51.228;22.498;2023-09-12T00:21:35;15.30;99.90
23149;DHT22;11743;51.228;22.498;2023-09-12T00:21:57;15.30;99.90
23149;DHT22;11743;51.228;22.498;2023-09-12T00:22:18;15.30;99.90
23149;DHT22;11743;51.228;22.498;2023-09-12T00:22:40;15.30;99.90
23149;DHT22;11743;51.228;22.498;2023-09-12T00:23:02;15.30;99.90
23149;DHT22;11743;51.228;22.498;2023-09-12T00:23:26;15.30;99.90
23149;DHT22;11743;51.228;22.498;2023-09-12T00:23:48;15.30;99.90
23149;DHT22;11743;51.228;22.498;2023-09-12T00:24:10;15.30;99.90
23149;DHT22;11743;51.228;22.498;2023-09-12T00:24:32;15.30;99.90
23149;DHT22;11743;51.228;22.498;2023-09-12T00:24:53;15.30;99.90
23149;DHT22;11743;51.228;22.498;2023-09-12T00:25:15;15.30;99.90
23149;DHT22;11743;51.228;22.498;2023-09-12T00:25:37;15.30;99.90
23149;DHT22;11743;51.228;22.498;2023-09-12T00:25:59;15.30;99.90
23149;DHT22;11743;51.228;22.498;2023-09-12T00:26:21;15.30;99.90
23149;DHT22;11743;51.228;22.498;2023-09-12T00:26:42;15.30;99.90
23149;DHT22;11743;51.228;22.498;2023-09-12T00:27:04;15.30;99.90
23149;DHT22;11743;51.228;22.498;2023-09-12T00:27:27;15.30;99.90
23149;DHT22;11743;51.228;22.498;2023-09-12T00:27:49;15.30;99.90
23149;DHT22;11743;51.228;22.498;2023-09-12T00:28:11;15.30;99.90
23149;DHT22;11743;51.228;22.498;2023-09-12T00:28:32;15.20;99.90
23149;DHT22;11743;51.228;22.498;2023-09-12T00:28:56;15.30;99.90
23149;DHT22;11743;51.228;22.498;2023-09-12T00:29:17;15.30;99.90
23149;DHT22;11743;51.228;22.498;2023-09-12T00:29:39;15.20;99.90
23149;DHT22;11743;51.228;22.498;2023-09-12T00:30:01;15.20;99.90
23149;DHT22;11743;51.228;22.498;2023-09-12T00:30:23;15.20;99.90
23149;DHT22;11743;51.228;22.498;2023-09-12T00:30:45;15.20;99.90
23149;DHT22;11743;51.228;22.498;2023-09-12T00:31:07;15.20;99.90
23149;DHT22;11743;51.228;22.498;2023-09-12T00:31:29;15.20;99.90
23149;DHT22;11743;51.228;22.498;2023-09-12T00:31:51;15.20;99.90
23149;DHT22;11743;51.228;22.498;2023-09-12T00:32:12;15.20;99.90
23149;DHT22;11743;51.228;22.498;2023-09-12T00:32:34;15.30;99.90
23149;DHT22;11743;51.228;22.498;2023-09-12T00:32:56;15.20;99.90
23149;DHT22;11743;51.228;22.498;2023-09-12T00:33:18;15.20;99.90
23149;DHT22;11743;51.228;22.498;2023-09-12T00:33:40;15.20;99.90
23149;DHT22;11743;51.228;22.498;2023-09-12T00:34:05;15.20;99.90
23149;DHT22;11743;51.228;22.498;2023-09-12T00:34:26;15.30;99.90
23149;DHT22;11743;51.228;22.498;2023-09-12T00:34:48;15.20;99.90
23149;DHT22;11743;51.228;22.498;2023-09-12T00:35:10;15.20;99.90
23149;DHT22;11743;51.228;22.498;2023-09-12T00:35:32;15.20;99.90
23149;DHT22;11743;51.228;22.498;2023-09-12T00:35:54;15.30;99.90
23149;DHT22;11743;51.228;22.498;2023-09-12T00:36:15;15.20;99.90
23149;DHT22;11743;51.228;22.498;2023-09-12T00:36:37;15.30;99.90
23149;DHT22;11743;51.228;22.498;2023-09-12T00:36:59;15.20;99.90
23149;DHT22;11743;51.228;22.498;2023-09-12T00:37:21;15.20;99.90
23149;DHT22;11743;51.228;22.498;2023-09-12T00:37:43;15.20;99.90
23149;DHT22;11743;51.228;22.498;2023-09-12T00:38:05;15.20;99.90
23149;DHT22;11743;51.228;22.498;2023-09-12T00:38:28;15.20;99.90
23149;DHT22;11743;51.228;22.498;2023-09-12T00:38:50;15.20;99.90
23149;DHT22;11743;51.228;22.498;2023-09-12T00:39:11;15.20;99.90
23149;DHT22;11743;51.228;22.498;2023-09-12T00:39:33;15.20;99.90
23149;DHT22;11743;51.228;22.498;2023-09-12T00:39:55;15.20;99.90
23149;DHT22;11743;51.228;22.498;2023-09-12T00:40:17;15.30;99.90
23149;DHT22;11743;51.228;22.498;2023-09-12T00:40:39;15.20;99.90
23149;DHT22;11743;51.228;22.498;2023-09-12T00:41:01;15.20;99.90
23149;DHT22;11743;51.228;22.498;2023-09-12T00:41:23;15.20;99.90
23149;DHT22;11743;51.228;22.498;2023-09-12T00:41:45;15.30;99.90
23149;DHT22;11743;51.228;22.498;2023-09-12T00:42:06;15.30;99.90
23149;DHT22;11743;51.228;22.498;2023-09-12T00:42:29;15.30;99.90
23149;DHT22;11743;51.228;22.498;2023-09-12T00:42:51;15.30;99.90
23149;DHT22;11743;51.228;22.498;2023-09-12T00:43:13;15.30;99.90
23149;DHT22;11743;51.228;22.498;2023-09-12T00:43:34;15.30;99.90
23149;DHT22;11743;51.228;22.498;2023-09-12T00:43:56;15.30;99.90
23149;DHT22;11743;51.228;22.498;2023-09-12T00:44:19;15.30;99.90
23149;DHT22;11743;51.228;22.498;2023-09-12T00:44:41;15.30;99.90
23149;DHT22;11743;51.228;22.498;2023-09-12T00:45:03;15.30;99.90
23149;DHT22;11743;51.228;22.498;2023-09-12T00:45:25;15.30;99.90
23149;DHT22;11743;51.228;22.498;2023-09-12T00:45:47;15.30;99.90
23149;DHT22;11743;51.228;22.498;2023-09-12T00:46:09;15.30;99.90
23149;DHT22;11743;51.228;22.498;2023-09-12T00:46:31;15.30;99.90
23149;DHT22;11743;51.228;22.498;2023-09-12T00:46:54;15.30;99.90
23149;DHT22;11743;51.228;22.498;2023-09-12T00:47:17;15.30;99.90
23149;DHT22;11743;51.228;22.498;2023-09-12T00:47:40;15.30;99.90
23149;DHT22;11743;51.228;22.498;2023-09-12T00:48:04;15.30;99.90
23149;DHT22;11743;51.228;22.498;2023-09-12T00:48:27;15.30;99.90
23149;DHT22;11743;51.228;22.498;2023-09-12T00:48:49;15.30;99.90
23149;DHT22;11743;51.228;22.498;2023-09-12T00:49:13;15.30;99.90
23149;DHT22;11743;51.228;22.498;2023-09-12T00:49:35;15.30;99.90
23149;DHT22;11743;51.228;22.498;2023-09-12T00:49:58;15.30;99.90
23149;DHT22;11743;51.228;22.498;2023-09-12T00:50:22;15.30;99.90
23149;DHT22;11743;51.228;22.498;2023-09-12T00:50:46;15.30;99.90
23149;DHT22;11743;51.228;22.498;2023-09-12T00:51:08;15.30;99.90
23149;DHT22;11743;51.228;22.498;2023-09-12T00:51:31;15.30;99.90
23149;DHT22;11743;51.228;22.498;2023-09-12T00:51:54;15.30;99.90
23149;DHT22;11743;51.228;22.498;2023-09-12T00:52:19;15.30;99.90
23149;DHT22;11743;51.228;22.498;2023-09-12T00:52:42;15.30;99.90
23149;DHT22;11743;51.228;22.498;2023-09-12T00:53:05;15.30;99.90
23149;DHT22;11743;51.228;22.498;2023-09-12T00:53:28;15.30;99.90
23149;DHT22;11743;51.228;22.498;2023-09-12T00:53:49;15.30;99.90
23149;DHT22;11743;51.228;22.498;2023-09-12T00:54:11;15.30;99.90
23149;DHT22;11743;51.228;22.498;2023-09-12T00:54:33;15.30;99.90
23149;DHT22;11743;51.228;22.498;2023-09-12T00:54:55;15.30;99.90
23149;DHT22;11743;51.228;22.498;2023-09-12T00:55:17;15.30;99.90
23149;DHT22;11743;51.228;22.498;2023-09-12T00:55:44;15.30;99.90
23149;DHT22;11743;51.228;22.498;2023-09-12T00:56:07;15.40;99.90
23149;DHT22;11743;51.228;22.498;2023-09-12T00:56:29;15.40;99.90
23149;DHT22;11743;51.228;22.498;2023-09-12T00:56:51;15.40;99.90
23149;DHT22;11743;51.228;22.498;2023-09-12T00:57:13;15.30;99.90
23149;DHT22;11743;51.228;22.498;2023-09-12T00:57:35;15.30;99.90
23149;DHT22;11743;51.228;22.498;2023-09-12T00:57:58;15.30;99.90
23149;DHT22;11743;51.228;22.498;2023-09-12T00:58:20;15.40;99.90
23149;DHT22;11743;51.228;22.498;2023-09-12T00:58:42;15.40;99.90
23149;DHT22;11743;51.228;22.498;2023-09-12T00:59:05;15.40;99.90
23149;DHT22;11743;51.228;22.498;2023-09-12T00:59:27;15.40;99.90
23149;DHT22;11743;51.228;22.498;2023-09-12T00:59:49;15.40;99.90
23149;DHT22;11743;51.228;22.498;2023-09-12T01:00:13;15.40;99.90
23149;DHT22;11743;51.228;22.498;2023-09-12T01:00:35;15.40;99.90
23149;DHT22;11743;51.228;22.498;2023-09-12T01:00:57;15.40;99.90
23149;DHT22;11743;51.228;22.498;2023-09-12T01:01:20;15.40;99.90
23149;DHT22;11743;51.228;22.498;2023-09-12T01:01:42;15.40;99.90
23149;DHT22;11743;51.228;22.498;2023-09-12T01:02:05;15.40;99.90
23149;DHT22;11743;51.228;22.498;2023-09-12T01:02:27;15.30;99.90
23149;DHT22;11743;51.228;22.498;2023-09-12T01:02:49;15.40;99.90
23149;DHT22;11743;51.228;22.498;2023-09-12T01:03:14;15.40;99.90
23149;DHT22;11743;51.228;22.498;2023-09-12T01:03:36;15.40;99.90
23149;DHT22;11743;51.228;22.498;2023-09-12T01:03:58;15.40;99.90
23149;DHT22;11743;51.228;22.498;2023-09-12T01:04:20;15.40;99.90
23149;DHT22;11743;51.228;22.498;2023-09-12T01:04:55;15.30;99.90
23149;DHT22;11743;51.228;22.498;2023-09-12T01:05:19;15.30;99.90
23149;DHT22;11743;51.228;22.498;2023-09-12T01:05:42;15.30;99.90
23149;DHT22;11743;51.228;22.498;2023-09-12T01:06:06;15.30;99.90
23149;DHT22;11743;51.228;22.498;2023-09-12T01:06:29;15.30;99.90
23149;DHT22;11743;51.228;22.498;2023-09-12T01:06:52;15.30;99.90
23149;DHT22;11743;51.228;22.498;2023-09-12T01:07:14;15.30;99.90
23149;DHT22;11743;51.228;22.498;2023-09-12T01:07:37;15.30;99.90
23149;DHT22;11743;51.228;22.498;2023-09-12T01:07:59;15.30;99.90
23149;DHT22;11743;51.228;22.498;2023-09-12T01:08:22;15.30;99.90
23149;DHT22;11743;51.228;22.498;2023-09-12T01:08:43;15.30;99.90
23149;DHT22;11743;51.228;22.498;2023-09-12T01:09:05;15.30;99.90
23149;DHT22;11743;51.228;22.498;2023-09-12T01:09:28;15.30;99.90
23149;DHT22;11743;51.228;22.498;2023-09-12T01:09:50;15.30;99.90
23149;DHT22;11743;51.228;22.498;2023-09-12T01:10:12;15.30;99.90
23149;DHT22;11743;51.228;22.498;2023-09-12T01:10:33;15.30;99.90
23149;DHT22;11743;51.228;22.498;2023-09-12T01:10:57;15.30;99.90
23149;DHT22;11743;51.228;22.498;2023-09-12T01:11:20;15.30;99.90
23149;DHT22;11743;51.228;22.498;2023-09-12T01:11:42;15.30;99.90
23149;DHT22;11743;51.228;22.498;2023-09-12T01:12:04;15.30;99.90
23149;DHT22;11743;51.228;22.498;2023-09-12T01:12:27;15.30;99.90
23149;DHT22;11743;51.228;22.498;2023-09-12T01:12:50;15.30;99.90
23149;DHT22;11743;51.228;22.498;2023-09-12T01:13:13;15.30;99.90
23149;DHT22;11743;51.228;22.498;2023-09-12T01:13:35;15.30;99.90
23149;DHT22;11743;51.228;22.498;2023-09-12T01:13:57;15.20;99.90
23149;DHT22;11743;51.228;22.498;2023-09-12T01:14:19;15.20;99.90
23149;DHT22;11743;51.228;22.498;2023-09-12T01:14:41;15.20;99.90
23149;DHT22;11743;51.228;22.498;2023-09-12T01:15:03;15.20;99.90
23149;DHT22;11743;51.228;22.498;2023-09-12T01:15:29;15.20;99.90
23149;DHT22;11743;51.228;22.498;2023-09-12T01:15:51;15.20;99.90
23149;DHT22;11743;51.228;22.498;2023-09-12T01:16:13;15.20;99.90
23149;DHT22;11743;51.228;22.498;2023-09-12T01:16:35;15.20;99.90
23149;DHT22;11743;51.228;22.498;2023-09-12T01:16:58;15.20;99.90
23149;DHT22;11743;51.228;22.498;2023-09-12T01:17:20;15.20;99.90
23149;DHT22;11743;51.228;22.498;2023-09-12T01:17:43;15.20;99.90
23149;DHT22;11743;51.228;22.498;2023-09-12T01:18:05;15.20;99.90
23149;DHT22;11743;51.228;22.498;2023-09-12T01:18:27;15.20;99.90
23149;DHT22;11743;51.228;22.498;2023-09-12T01:18:49;15.20;99.90
23149;DHT22;11743;51.228;22.498;2023-09-12T01:19:12;15.20;99.90
23149;DHT22;11743;51.228;22.498;2023-09-12T01:19:36;15.20;99.90
23149;DHT22;11743;51.228;22.498;2023-09-12T01:20:00;15.20;99.90
23149;DHT22;11743;51.228;22.498;2023-09-12T01:20:31;15.20;99.90
23149;DHT22;11743;51.228;22.498;2023-09-12T01:26:23;15.10;99.90
23149;DHT22;11743;51.228;22.498;2023-09-12T01:27:24;15.10;99.90
23149;DHT22;11743;51.228;22.498;2023-09-12T01:27:50;15.10;99.90
23149;DHT22;11743;51.228;22.498;2023-09-12T01:28:14;15.10;99.90
23149;DHT22;11743;51.228;22.498;2023-09-12T01:28:40;15.10;99.90
23149;DHT22;11743;51.228;22.498;2023-09-12T01:29:06;15.10;99.90
23149;DHT22;11743;51.228;22.498;2023-09-12T01:29:30;15.10;99.90
23149;DHT22;11743;51.228;22.498;2023-09-12T01:29:56;15.00;99.90
23149;DHT22;11743;51.228;22.498;2023-09-12T01:30:21;15.10;99.90
23149;DHT22;11743;51.228;22.498;2023-09-12T01:30:45;15.00;99.90
23149;DHT22;11743;51.228;22.498;2023-09-12T01:31:08;15.00;99.90
23149;DHT22;11743;51.228;22.498;2023-09-12T01:31:31;15.00;99.90
23149;DHT22;11743;51.228;22.498;2023-09-12T01:31:55;15.00;99.90
23149;DHT22;11743;51.228;22.498;2023-09-12T01:32:18;15.00;99.90
23149;DHT22;11743;51.228;22.498;2023-09-12T01:32:41;15.00;99.90
23149;DHT22;11743;51.228;22.498;2023-09-12T01:33:03;15.00;99.90
23149;DHT22;11743;51.228;22.498;2023-09-12T01:33:26;15.00;99.90
23149;DHT22;11743;51.228;22.498;2023-09-12T01:33:48;15.00;99.90
23149;DHT22;11743;51.228;22.498;2023-09-12T01:34:11;15.00;99.90
23149;DHT22;11743;51.228;22.498;2023-09-12T01:34:33;15.00;99.90
23149;DHT22;11743;51.228;22.498;2023-09-12T01:34:55;15.00;99.90
23149;DHT22;11743;51.228;22.498;2023-09-12T01:35:16;15.00;99.90
23149;DHT22;11743;51.228;22.498;2023-09-12T01:35:38;15.00;99.90
23149;DHT22;11743;51.228;22.498;2023-09-12T01:36:01;15.00;99.90
23149;DHT22;11743;51.228;22.498;2023-09-12T01:36:23;15.00;99.90
23149;DHT22;11743;51.228;22.498;2023-09-12T01:36:45;15.00;99.90
23149;DHT22;11743;51.228;22.498;2023-09-12T01:37:07;14.90;99.90
23149;DHT22;11743;51.228;22.498;2023-09-12T01:37:29;14.90;99.90
23149;DHT22;11743;51.228;22.498;2023-09-12T01:37:51;15.00;99.90
23149;DHT22;11743;51.228;22.498;2023-09-12T01:38:14;14.90;99.90
23149;DHT22;11743;51.228;22.498;2023-09-12T01:38:36;14.90;99.90
23149;DHT22;11743;51.228;22.498;2023-09-12T01:38:58;14.90;99.90
23149;DHT22;11743;51.228;22.498;2023-09-12T01:39:19;14.90;99.90
23149;DHT22;11743;51.228;22.498;2023-09-12T01:39:42;14.90;99.90
23149;DHT22;11743;51.228;22.498;2023-09-12T01:40:04;14.90;99.90
23149;DHT22;11743;51.228;22.498;2023-09-12T01:40:44;14.90;99.90
23149;DHT22;11743;51.228;22.498;2023-09-12T01:41:07;14.90;99.90
23149;DHT22;11743;51.228;22.498;2023-09-12T01:41:32;14.90;99.90
23149;DHT22;11743;51.228;22.498;2023-09-12T01:41:58;14.90;99.90
23149;DHT22;11743;51.228;22.498;2023-09-12T01:42:21;14.90;99.90
23149;DHT22;11743;51.228;22.498;2023-09-12T01:42:46;14.90;99.90
23149;DHT22;11743;51.228;22.498;2023-09-12T01:43:08;14.90;99.90
23149;DHT22;11743;51.228;22.498;2023-09-12T01:43:31;14.90;99.90
23149;DHT22;11743;51.228;22.498;2023-09-12T01:43:55;14.90;99.90
23149;DHT22;11743;51.228;22.498;2023-09-12T01:44:18;14.90;99.90
23149;DHT22;11743;51.228;22.498;2023-09-12T01:44:42;14.80;99.90
23149;DHT22;11743;51.228;22.498;2023-09-12T01:45:05;14.80;99.90
23149;DHT22;11743;51.228;22.498;2023-09-12T01:45:29;14.90;99.90
23149;DHT22;11743;51.228;22.498;2023-09-12T01:45:53;14.80;99.90
23149;DHT22;11743;51.228;22.498;2023-09-12T01:46:17;14.80;99.90
23149;DHT22;11743;51.228;22.498;2023-09-12T01:46:40;14.80;99.90
23149;DHT22;11743;51.228;22.498;2023-09-12T01:47:04;14.80;99.90
23149;DHT22;11743;51.228;22.498;2023-09-12T01:47:28;14.80;99.90
23149;DHT22;11743;51.228;22.498;2023-09-12T01:47:50;14.80;99.90
23149;DHT22;11743;51.228;22.498;2023-09-12T01:48:13;14.80;99.90
23149;DHT22;11743;51.228;22.498;2023-09-12T01:48:40;14.80;99.90
23149;DHT22;11743;51.228;22.498;2023-09-12T01:49:02;14.80;99.90
23149;DHT22;11743;51.228;22.498;2023-09-12T01:49:27;14.80;99.90
23149;DHT22;11743;51.228;22.498;2023-09-12T01:49:52;14.80;99.90
23149;DHT22;11743;51.228;22.498;2023-09-12T01:50:16;14.80;99.90
23149;DHT22;11743;51.228;22.498;2023-09-12T01:50:39;14.80;99.90
23149;DHT22;11743;51.228;22.498;2023-09-12T01:51:01;14.80;99.90
23149;DHT22;11743;51.228;22.498;2023-09-12T01:51:24;14.80;99.90
23149;DHT22;11743;51.228;22.498;2023-09-12T01:51:47;14.80;99.90
23149;DHT22;11743;51.228;22.498;2023-09-12T01:52:10;14.80;99.90
23149;DHT22;11743;51.228;22.498;2023-09-12T01:52:32;14.80;99.90
23149;DHT22;11743;51.228;22.498;2023-09-12T01:52:54;14.80;99.90
23149;DHT22;11743;51.228;22.498;2023-09-12T01:53:16;14.80;99.90
23149;DHT22;11743;51.228;22.498;2023-09-12T01:53:39;14.80;99.90
23149;DHT22;11743;51.228;22.498;2023-09-12T01:54:01;14.80;99.90
23149;DHT22;11743;51.228;22.498;2023-09-12T01:54:26;14.80;99.90
23149;DHT22;11743;51.228;22.498;2023-09-12T01:54:49;14.80;99.90
23149;DHT22;11743;51.228;22.498;2023-09-12T01:55:12;14.80;99.90
23149;DHT22;11743;51.228;22.498;2023-09-12T01:55:34;14.80;99.90
23149;DHT22;11743;51.228;22.498;2023-09-12T01:55:57;14.80;99.90
23149;DHT22;11743;51.228;22.498;2023-09-12T01:56:20;14.80;99.90
23149;DHT22;11743;51.228;22.498;2023-09-12T01:56:43;14.80;99.90
23149;DHT22;11743;51.228;22.498;2023-09-12T01:57:05;14.70;99.90
23149;DHT22;11743;51.228;22.498;2023-09-12T01:57:27;14.80;99.90
23149;DHT22;11743;51.228;22.498;2023-09-12T01:57:49;14.80;99.90
23149;DHT22;11743;51.228;22.498;2023-09-12T01:58:12;14.70;99.90
23149;DHT22;11743;51.228;22.498;2023-09-12T01:58:35;14.70;99.90
23149;DHT22;11743;51.228;22.498;2023-09-12T01:58:57;14.70;99.90
23149;DHT22;11743;51.228;22.498;2023-09-12T01:59:20;14.70;99.90
23149;DHT22;11743;51.228;22.498;2023-09-12T01:59:42;14.70;99.90
23149;DHT22;11743;51.228;22.498;2023-09-12T02:00:04;14.80;99.90
23149;DHT22;11743;51.228;22.498;2023-09-12T02:00:26;14.80;99.90
23149;DHT22;11743;51.228;22.498;2023-09-12T02:00:48;14.70;99.90
23149;DHT22;11743;51.228;22.498;2023-09-12T02:01:11;14.70;99.90
23149;DHT22;11743;51.228;22.498;2023-09-12T02:01:33;14.70;99.90
23149;DHT22;11743;51.228;22.498;2023-09-12T02:01:55;14.80;99.90
23149;DHT22;11743;51.228;22.498;2023-09-12T02:02:17;14.70;99.90
23149;DHT22;11743;51.228;22.498;2023-09-12T02:02:39;14.70;99.90
23149;DHT22;11743;51.228;22.498;2023-09-12T02:03:01;14.80;99.90
23149;DHT22;11743;51.228;22.498;2023-09-12T02:03:23;14.80;99.90
23149;DHT22;11743;51.228;22.498;2023-09-12T02:03:45;14.80;99.90
23149;DHT22;11743;51.228;22.498;2023-09-12T02:04:07;14.70;99.90
23149;DHT22;11743;51.228;22.498;2023-09-12T02:04:30;14.70;99.90
23149;DHT22;11743;51.228;22.498;2023-09-12T02:05:15;14.70;99.90
23149;DHT22;11743;51.228;22.498;2023-09-12T02:05:40;14.70;99.90
23149;DHT22;11743;51.228;22.498;2023-09-12T02:06:02;14.70;99.90
23149;DHT22;11743;51.228;22.498;2023-09-12T02:06:24;14.70;99.90
23149;DHT22;11743;51.228;22.498;2023-09-12T02:06:46;14.70;99.90
23149;DHT22;11743;51.228;22.498;2023-09-12T02:07:09;14.70;99.90
23149;DHT22;11743;51.228;22.498;2023-09-12T02:07:33;14.70;99.90
23149;DHT22;11743;51.228;22.498;2023-09-12T02:07:56;14.70;99.90
23149;DHT22;11743;51.228;22.498;2023-09-12T02:08:18;14.70;99.90
23149;DHT22;11743;51.228;22.498;2023-09-12T02:08:40;14.70;99.90
23149;DHT22;11743;51.228;22.498;2023-09-12T02:09:02;14.70;99.90
23149;DHT22;11743;51.228;22.498;2023-09-12T02:09:25;14.70;99.90
23149;DHT22;11743;51.228;22.498;2023-09-12T02:09:46;14.70;99.90
23149;DHT22;11743;51.228;22.498;2023-09-12T02:10:08;14.70;99.90
23149;DHT22;11743;51.228;22.498;2023-09-12T02:10:31;14.70;99.90
23149;DHT22;11743;51.228;22.498;2023-09-12T02:10:54;14.70;99.90
23149;DHT22;11743;51.228;22.498;2023-09-12T02:11:16;14.70;99.90
23149;DHT22;11743;51.228;22.498;2023-09-12T02:11:38;14.70;99.90
23149;DHT22;11743;51.228;22.498;2023-09-12T02:11:59;14.70;99.90
23149;DHT22;11743;51.228;22.498;2023-09-12T02:12:21;14.70;99.90
23149;DHT22;11743;51.228;22.498;2023-09-12T02:12:43;14.70;99.90
23149;DHT22;11743;51.228;22.498;2023-09-12T02:13:05;14.70;99.90
23149;DHT22;11743;51.228;22.498;2023-09-12T02:13:27;14.70;99.90
23149;DHT22;11743;51.228;22.498;2023-09-12T02:13:48;14.70;99.90
23149;DHT22;11743;51.228;22.498;2023-09-12T02:14:10;14.70;99.90
23149;DHT22;11743;51.228;22.498;2023-09-12T02:14:32;14.70;99.90
23149;DHT22;11743;51.228;22.498;2023-09-12T02:14:54;14.70;99.90
23149;DHT22;11743;51.228;22.498;2023-09-12T02:15:16;14.70;99.90
23149;DHT22;11743;51.228;22.498;2023-09-12T02:15:38;14.70;99.90
23149;DHT22;11743;51.228;22.498;2023-09-12T02:16:00;14.70;99.90
23149;DHT22;11743;51.228;22.498;2023-09-12T02:16:24;14.70;99.90
23149;DHT22;11743;51.228;22.498;2023-09-12T02:16:46;14.70;99.90
23149;DHT22;11743;51.228;22.498;2023-09-12T02:17:08;14.70;99.90
23149;DHT22;11743;51.228;22.498;2023-09-12T02:17:30;14.70;99.90
23149;DHT22;11743;51.228;22.498;2023-09-12T02:17:52;14.80;99.90
23149;DHT22;11743;51.228;22.498;2023-09-12T02:18:14;14.70;99.90
23149;DHT22;11743;51.228;22.498;2023-09-12T02:18:36;14.80;99.90
23149;DHT22;11743;51.228;22.498;2023-09-12T02:18:58;14.80;99.90
23149;DHT22;11743;51.228;22.498;2023-09-12T02:19:20;14.80;99.90
23149;DHT22;11743;51.228;22.498;2023-09-12T02:19:42;14.80;99.90
23149;DHT22;11743;51.228;22.498;2023-09-12T02:20:05;14.80;99.90
23149;DHT22;11743;51.228;22.498;2023-09-12T02:20:27;14.80;99.90
23149;DHT22;11743;51.228;22.498;2023-09-12T02:20:49;14.80;99.90
23149;DHT22;11743;51.228;22.498;2023-09-12T02:21:11;14.80;99.90
23149;DHT22;11743;51.228;22.498;2023-09-12T02:21:33;14.80;99.90
23149;DHT22;11743;51.228;22.498;2023-09-12T02:21:54;14.80;99.90
23149;DHT22;11743;51.228;22.498;2023-09-12T02:22:16;14.80;99.90
23149;DHT22;11743;51.228;22.498;2023-09-12T02:22:38;14.80;99.90
23149;DHT22;11743;51.228;22.498;2023-09-12T02:23:00;14.80;99.90
23149;DHT22;11743;51.228;22.498;2023-09-12T02:23:22;14.80;99.90
23149;DHT22;11743;51.228;22.498;2023-09-12T02:23:44;14.80;99.90
23149;DHT22;11743;51.228;22.498;2023-09-12T02:24:06;14.80;99.90
23149;DHT22;11743;51.228;22.498;2023-09-12T02:24:28;14.80;99.90
23149;DHT22;11743;51.228;22.498;2023-09-12T02:24:50;14.80;99.90
23149;DHT22;11743;51.228;22.498;2023-09-12T02:25:12;14.80;99.90
23149;DHT22;11743;51.228;22.498;2023-09-12T02:25:34;14.90;99.90
23149;DHT22;11743;51.228;22.498;2023-09-12T02:25:56;14.90;99.90
23149;DHT22;11743;51.228;22.498;2023-09-12T02:26:18;14.90;99.90
23149;DHT22;11743;51.228;22.498;2023-09-12T02:26:40;14.90;99.90